Time;durP1;ratioP1;P1;durP2;ratioP2;P2;SDS_P1;SDS_P2;PMS_P1;PMS_P2;Temp;Humidity;BMP_temperature;BMP_pressure;BME280_temperature;BME280_humidity;BME280_pressure;Samples;Min_cycle;Max_cycle;Signal;HPM_P1;HPM_P2
2023/04/08 00:02:59;;;;;;;13.73;6.53;;;;;;;;;;10410503;28;19925;-75
2023/04/08 00:08:04;;;;;;;14.90;6.40;;;;;;;;;;10406570;28;20049;-75
2023/04/08 00:13:06;;;;;;;;;;;;;;;;;;10411937;28;20037;-75
2023/04/08 00:18:09;;;;;;;9.30;4.15;;;;;;;;;;10406691;28;20271;-75
2023/04/08 00:23:13;;;;;;;4.90;3.13;;;;;;;;;;10408803;28;20091;-76
2023/04/08 00:28:16;;;;;;;13.35;6.13;;;;;;;;;;10404925;28;20037;-76
2023/04/08 00:33:19;;;;;;;14.35;6.20;;;;;;;;;;10408701;28;20049;-77
2023/04/08 00:38:23;;;;;;;16.20;5.22;;;;;;;;;;10404068;28;20449;-75
2023/04/08 00:43:25;;;;;;;12.95;5.93;;;;;;;;;;10389944;28;20120;-76
2023/04/08 00:48:30;;;;;;;4.82;2.45;;;;;;;;;;10416901;28;20037;-76
2023/04/08 00:53:32;;;;;;;;;;;;;;;;;;10409613;28;20042;-76
2023/04/08 00:58:37;;;;;;;14.52;5.35;;;;;;;;;;10405203;28;19975;-75
2023/04/08 01:03:42;;;;;;;10.50;4.63;;;;;;;;;;10390687;28;20121;-75
2023/04/08 01:08:45;;;;;;;7.05;2.88;;;;;;;;;;10404249;28;20052;-75
2023/04/08 01:13:53;;;;;;;8.13;3.53;;;;;;;;;;10404537;28;20091;-75
2023/04/08 01:19:08;;;;;;;8.00;2.90;;;;;;;;;;10405163;28;20091;-76
2023/04/08 01:24:13;;;;;;;11.00;4.65;;;;;;;;;;10407923;28;20045;-75
2023/04/08 01:29:18;;;;;;;9.65;4.40;;;;;;;;;;10419561;28;20053;-76
2023/04/08 01:34:21;;;;;;;6.07;3.10;;;;;;;;;;10414243;28;20098;-76
2023/04/08 01:39:25;;;;;;;10.60;5.17;;;;;;;;;;10413469;28;20099;-75
2023/04/08 01:44:29;;;;;;;10.77;4.38;;;;;;;;;;10406242;28;20042;-75
2023/04/08 01:49:34;;;;;;;6.53;2.88;;;;;;;;;;10417698;28;20048;-76
2023/04/08 01:54:37;;;;;;;10.73;4.47;;;;;;;;;;10409356;28;20048;-76
2023/04/08 01:59:41;;;;;;;6.65;3.25;;;;;;;;;;10412243;28;20041;-76
2023/04/08 02:04:44;;;;;;;11.23;5.25;;;;;;;;;;10398094;28;20452;-75
2023/04/08 02:09:47;;;;;;;8.00;3.05;;;;;;;;;;10393871;28;20130;-74
2023/04/08 02:14:51;;;;;;;8.60;3.88;;;;;;;;;;10414264;28;20047;-74
2023/04/08 02:20:05;;;;;;;12.40;4.93;;;;;;;;;;10392450;28;20038;-75
2023/04/08 02:25:09;;;;;;;8.40;4.35;;;;;;;;;;10396558;28;20056;-75
2023/04/08 02:30:15;;;;;;;11.93;4.32;;;;;;;;;;10408171;28;20045;-75
2023/04/08 02:35:19;;;;;;;7.03;2.55;;;;;;;;;;10413090;28;20041;-74
2023/04/08 02:40:26;;;;;;;8.00;3.67;;;;;;;;;;10400810;28;20555;-76
2023/04/08 02:45:31;;;;;;;8.43;3.63;;;;;;;;;;10412401;28;20564;-75
2023/04/08 02:50:35;;;;;;;12.68;4.95;;;;;;;;;;10397191;28;20146;-75
2023/04/08 02:55:38;;;;;;;9.00;3.10;;;;;;;;;;10413257;28;20156;-76
2023/04/08 03:00:43;;;;;;;10.23;3.85;;;;;;;;;;10398257;28;20108;-75
2023/04/08 03:05:46;;;;;;;7.93;3.88;;;;;;;;;;10408608;28;20037;-76
2023/04/08 03:10:49;;;;;;;7.65;3.63;;;;;;;;;;10408846;28;20072;-76
2023/04/08 03:15:54;;;;;;;11.63;5.00;;;;;;;;;;10411928;28;20412;-75
2023/04/08 03:20:57;;;;;;;9.52;4.05;;;;;;;;;;10404110;28;20139;-75
2023/04/08 03:26:00;;;;;;;9.80;4.60;;;;;;;;;;10411095;28;20069;-76
2023/04/08 03:31:04;;;;;;;10.60;4.05;;;;;;;;;;10409589;28;20038;-75
2023/04/08 03:36:08;;;;;;;10.63;4.90;;;;;;;;;;10411396;28;20077;-76
2023/04/08 03:41:12;;;;;;;7.90;3.75;;;;;;;;;;10397456;28;20065;-75
2023/04/08 03:46:16;;;;;;;11.02;5.38;;;;;;;;;;10410768;28;20094;-75
2023/04/08 03:51:18;;;;;;;10.27;4.65;;;;;;;;;;10412039;28;20097;-76
2023/04/08 03:56:22;;;;;;;18.37;5.73;;;;;;;;;;10411180;28;20072;-75
2023/04/08 04:01:26;;;;;;;13.53;6.20;;;;;;;;;;10402934;28;20033;-78
2023/04/08 04:06:30;;;;;;;11.90;5.70;;;;;;;;;;10408647;28;20534;-75
2023/04/08 04:11:34;;;;;;;12.23;5.38;;;;;;;;;;10407353;28;20049;-75
2023/04/08 04:16:38;;;;;;;15.68;6.35;;;;;;;;;;10409304;28;20041;-76
2023/04/08 04:21:41;;;;;;;11.68;5.38;;;;;;;;;;10400939;28;20033;-75
2023/04/08 04:26:44;;;;;;;10.10;3.93;;;;;;;;;;10408627;28;20128;-75
2023/04/08 04:31:48;;;;;;;13.57;6.97;;;;;;;;;;10405177;28;20116;-75
2023/04/08 04:36:51;;;;;;;16.98;6.72;;;;;;;;;;10420256;28;20045;-75
2023/04/08 04:41:54;;;;;;;15.65;6.10;;;;;;;;;;10407445;28;20037;-76
2023/04/08 04:46:58;;;;;;;17.00;7.25;;;;;;;;;;10407201;28;20029;-75
2023/04/08 04:52:02;;;;;;;16.65;5.43;;;;;;;;;;10412522;28;20408;-75
2023/04/08 04:57:04;;;;;;;10.80;4.28;;;;;;;;;;10403135;28;20034;-75
2023/04/08 05:02:09;;;;;;;20.65;7.10;;;;;;;;;;10402294;28;20121;-75
2023/04/08 05:07:12;;;;;;;11.25;4.53;;;;;;;;;;10406318;28;20048;-75
2023/04/08 05:12:16;;;;;;;19.53;8.30;;;;;;;;;;10405579;28;20492;-77
2023/04/08 05:17:20;;;;;;;10.75;4.60;;;;;;;;;;10407816;28;20466;-75
2023/04/08 05:22:23;;;;;;;20.00;7.53;;;;;;;;;;10404793;28;20201;-75
2023/04/08 05:27:26;;;;;;;17.83;7.68;;;;;;;;;;10401335;28;20073;-75
2023/04/08 05:32:30;;;;;;;10.18;4.25;;;;;;;;;;10407145;28;20048;-75
2023/04/08 05:37:36;;;;;;;17.33;7.25;;;;;;;;;;10405445;28;20041;-75
2023/04/08 05:42:38;;;;;;;15.40;5.65;;;;;;;;;;10405941;28;20049;-74
2023/04/08 05:47:43;;;;;;;14.32;6.00;;;;;;;;;;10407176;28;20041;-75
2023/04/08 05:52:45;;;;;;;22.15;7.43;;;;;;;;;;10387360;28;20427;-74
2023/04/08 05:57:49;;;;;;;19.90;7.17;;;;;;;;;;10389106;28;20509;-75
2023/04/08 06:03:03;;;;;;;18.40;7.43;;;;;;;;;;10404216;28;20088;-76
2023/04/08 06:08:06;;;;;;;18.38;6.90;;;;;;;;;;10407137;28;20046;-76
2023/04/08 06:13:09;;;;;;;19.07;7.80;;;;;;;;;;10403467;28;20498;-74
2023/04/08 06:18:13;;;;;;;19.10;8.50;;;;;;;;;;10407420;28;20049;-75
2023/04/08 06:23:17;;;;;;;22.13;9.23;;;;;;;;;;10396089;28;20041;-75
2023/04/08 06:28:19;;;;;;;17.35;8.40;;;;;;;;;;10412135;28;20045;-76
2023/04/08 06:33:24;;;;;;;19.70;8.47;;;;;;;;;;10395065;28;20045;-74
2023/04/08 06:38:27;;;;;;;19.70;8.52;;;;;;;;;;10406816;28;20041;-75
2023/04/08 06:43:29;;;;;;;18.70;8.30;;;;;;;;;;10410613;28;20099;-75
2023/04/08 06:48:33;;;;;;;21.23;9.52;;;;;;;;;;10416967;28;20048;-76
2023/04/08 06:53:36;;;;;;;19.77;6.97;;;;;;;;;;10399780;28;20049;-76
2023/04/08 06:58:38;;;;;;;23.30;10.05;;;;;;;;;;10411803;28;20139;-77
2023/04/08 07:03:42;;;;;;;19.00;9.05;;;;;;;;;;10405774;28;20049;-74
2023/04/08 07:08:46;;;;;;;20.17;9.48;;;;;;;;;;10410896;28;20107;-76
2023/04/08 07:13:48;;;;;;;19.25;9.48;;;;;;;;;;10409133;28;20434;-75
2023/04/08 07:18:52;;;;;;;22.15;9.23;;;;;;;;;;10419015;28;20068;-75
2023/04/08 07:23:56;;;;;;;18.73;8.35;;;;;;;;;;10411608;28;20128;-75
2023/04/08 07:28:59;;;;;;;20.95;8.63;;;;;;;;;;10407179;28;20065;-75
2023/04/08 07:34:03;;;;;;;19.23;9.20;;;;;;;;;;10410720;28;20499;-75
2023/04/08 07:39:06;;;;;;;17.23;9.07;;;;;;;;;;10409093;28;20511;-76
2023/04/08 07:44:09;;;;;;;15.90;8.02;;;;;;;;;;10408045;28;20045;-76
2023/04/08 07:49:13;;;;;;;16.50;8.13;;;;;;;;;;10409879;28;20045;-76
2023/04/08 07:54:17;;;;;;;18.35;8.70;;;;;;;;;;10403691;28;20073;-75
2023/04/08 07:59:19;;;;;;;21.95;9.55;;;;;;;;;;10411557;28;20088;-75
2023/04/08 08:04:24;;;;;;;18.45;8.55;;;;;;;;;;10418743;28;20037;-76
2023/04/08 08:09:29;;;;;;;15.52;7.57;;;;;;;;;;10409392;28;20041;-76
2023/04/08 08:14:34;;;;;;;17.75;8.38;;;;;;;;;;10404347;28;20155;-75
2023/04/08 08:19:38;;;;;;;17.58;7.85;;;;;;;;;;10411231;28;20048;-76
2023/04/08 08:24:41;;;;;;;19.50;7.82;;;;;;;;;;10409209;28;20507;-75
2023/04/08 08:29:44;;;;;;;11.35;5.68;;;;;;;;;;10415979;28;20045;-75
2023/04/08 08:34:49;;;;;;;14.43;7.15;;;;;;;;;;10387106;28;20103;-75
2023/04/08 08:39:52;;;;;;;18.27;8.45;;;;;;;;;;10387874;28;20319;-77
2023/04/08 08:44:55;;;;;;;16.08;8.80;;;;;;;;;;10408540;28;20068;-75
2023/04/08 08:50:00;;;;;;;18.57;7.87;;;;;;;;;;10407877;28;20089;-75
2023/04/08 08:55:02;;;;;;;19.88;8.43;;;;;;;;;;10401130;28;20459;-75
2023/04/08 09:00:31;;;;;;;17.80;8.70;;;;;;;;;;10408628;28;20095;-75
2023/04/08 09:05:46;;;;;;;18.42;8.45;;;;;;;;;;10403281;28;20045;-76
2023/04/08 09:10:49;;;;;;;16.07;7.27;;;;;;;;;;10384316;28;20083;-75
2023/04/08 09:16:02;;;;;;;16.10;7.63;;;;;;;;;;10408359;28;20044;-75
2023/04/08 09:21:07;;;;;;;15.05;7.30;;;;;;;;;;10406588;28;20430;-76
2023/04/08 09:26:11;;;;;;;14.43;6.47;;;;;;;;;;10410219;28;20052;-76
2023/04/08 09:31:20;;;;;;;16.60;6.93;;;;;;;;;;10419172;28;20072;-75
2023/04/08 09:36:27;;;;;;;12.55;6.22;;;;;;;;;;10440432;28;20045;-74
2023/04/08 09:41:39;;;;;;;14.90;6.65;;;;;;;;;;10444614;28;20038;-75
2023/04/08 09:46:49;;;;;;;18.70;7.45;;;;;;;;;;10437734;28;20060;-75
2023/04/08 09:51:59;;;;;;;12.63;6.70;;;;;;;;;;10450615;28;20047;-75
2023/04/08 09:57:05;;;;;;;13.98;7.15;;;;;;;;;;10431055;28;20052;-75
2023/04/08 10:02:11;;;;;;;13.05;5.80;;;;;;;;;;10441537;28;20132;-76
2023/04/08 10:07:16;;;;;;;10.27;5.57;;;;;;;;;;10437836;28;20045;-74
2023/04/08 10:12:18;;;;;;;;;;;;;;;;;;10433297;28;20050;-77
2023/04/08 10:17:25;;;;;;;15.48;7.50;;;;;;;;;;10398306;28;19927;-74
2023/04/08 10:22:48;;;;;;;15.57;7.80;;;;;;;;;;10418766;28;20060;-75
2023/04/08 10:27:51;;;;;;;15.13;7.97;;;;;;;;;;10416436;28;20115;-75
2023/04/08 10:32:55;;;;;;;17.05;8.55;;;;;;;;;;10433402;28;20037;-77
2023/04/08 10:38:01;;;;;;;22.75;9.18;;;;;;;;;;10415641;28;20404;-77
2023/04/08 10:43:04;;;;;;;21.35;9.32;;;;;;;;;;10411718;28;20037;-76
2023/04/08 10:48:14;;;;;;;16.48;8.32;;;;;;;;;;10421957;28;20403;-76
2023/04/08 10:53:23;;;;;;;18.52;9.50;;;;;;;;;;10429805;28;20427;-75
2023/04/08 10:58:27;;;;;;;17.80;9.00;;;;;;;;;;10413441;28;20072;-76
2023/04/08 11:03:32;;;;;;;18.92;9.02;;;;;;;;;;10408405;28;20662;-75
2023/04/08 11:08:36;;;;;;;20.15;9.38;;;;;;;;;;10412808;28;20048;-76
2023/04/08 11:13:40;;;;;;;21.45;10.25;;;;;;;;;;10409163;28;20486;-77
2023/04/08 11:18:54;;;;;;;17.67;9.13;;;;;;;;;;10422790;28;20040;-76
2023/04/08 11:23:58;;;;;;;18.23;7.55;;;;;;;;;;10405776;28;20403;-76
2023/04/08 11:29:01;;;;;;;19.00;9.65;;;;;;;;;;10404618;28;20037;-76
2023/04/08 11:34:05;;;;;;;;;;;;;;;;;;10411610;28;20043;-75
2023/04/08 11:39:09;;;;;;;20.42;10.05;;;;;;;;;;10402857;28;19925;-76
2023/04/08 11:44:12;;;;;;;19.67;9.63;;;;;;;;;;10401751;28;20041;-74
2023/04/08 11:49:16;;;;;;;19.95;9.82;;;;;;;;;;10433513;28;20041;-76
2023/04/08 11:54:27;;;;;;;17.35;8.70;;;;;;;;;;10427045;28;20069;-78
2023/04/08 11:59:31;;;;;;;17.48;7.93;;;;;;;;;;10410993;28;20041;-76
2023/04/08 12:04:34;;;;;;;19.00;8.65;;;;;;;;;;10402778;28;20052;-75
2023/04/08 12:09:38;;;;;;;14.52;7.57;;;;;;;;;;10407190;28;20045;-75
2023/04/08 12:14:40;;;;;;;15.48;7.65;;;;;;;;;;10416615;28;20545;-76
2023/04/08 12:19:43;;;;;;;15.45;8.00;;;;;;;;;;10405523;28;20053;-76
2023/04/08 12:24:47;;;;;;;13.07;6.97;;;;;;;;;;10409844;28;20460;-76
2023/04/08 12:29:52;;;;;;;19.48;8.40;;;;;;;;;;10407074;28;20104;-76
2023/04/08 12:34:57;;;;;;;16.67;8.30;;;;;;;;;;10416584;28;20029;-76
2023/04/08 12:40:02;;;;;;;18.95;7.45;;;;;;;;;;10428216;28;20480;-76
2023/04/08 12:45:05;;;;;;;25.60;10.82;;;;;;;;;;10428662;28;20143;-77
2023/04/08 12:50:09;;;;;;;15.85;8.05;;;;;;;;;;10413162;28;20049;-76
2023/04/08 12:55:13;;;;;;;14.32;7.85;;;;;;;;;;10412011;28;20415;-75
2023/04/08 13:00:16;;;;;;;14.48;7.15;;;;;;;;;;10408762;28;20103;-76
2023/04/08 13:05:20;;;;;;;14.82;7.75;;;;;;;;;;10401169;28;20125;-75
2023/04/08 13:10:43;;;;;;;16.63;8.35;;;;;;;;;;10400050;28;20118;-76
2023/04/08 13:15:46;;;;;;;14.30;7.15;;;;;;;;;;10404225;28;20478;-77
2023/04/08 13:20:49;;;;;;;13.35;7.28;;;;;;;;;;10424852;28;20045;-76
2023/04/08 13:25:53;;;;;;;14.48;6.75;;;;;;;;;;10445955;28;20061;-74
2023/04/08 13:30:56;;;;;;;;;;;;;;;;;;10418687;28;20502;-74
2023/04/08 13:35:58;;;;;;;13.50;7.07;;;;;;;;;;10427945;28;19921;-75
2023/04/08 13:41:02;;;;;;;14.68;6.80;;;;;;;;;;10404362;28;20029;-75
2023/04/08 13:46:05;;;;;;;12.05;6.13;;;;;;;;;;10415973;28;20116;-74
2023/04/08 13:51:09;;;;;;;14.57;7.00;;;;;;;;;;10427624;28;20068;-75
2023/04/08 13:56:14;;;;;;;13.13;6.40;;;;;;;;;;10416084;28;20057;-75
2023/04/08 14:01:26;;;;;;;12.07;6.00;;;;;;;;;;10409262;28;20108;-74
2023/04/08 14:06:30;;;;;;;14.88;6.68;;;;;;;;;;10408520;28;20118;-75
2023/04/08 14:11:34;;;;;;;15.77;7.43;;;;;;;;;;10411488;28;20581;-75
2023/04/08 14:16:40;;;;;;;12.65;6.15;;;;;;;;;;10396368;28;20041;-76
2023/04/08 14:21:44;;;;;;;12.60;6.13;;;;;;;;;;10417031;28;20250;-74
2023/04/08 14:26:49;;;;;;;14.13;6.93;;;;;;;;;;10437190;28;20473;-76
2023/04/08 14:31:52;;;;;;;12.93;6.47;;;;;;;;;;10432951;28;20036;-74
2023/04/08 14:36:55;;;;;;;14.05;6.60;;;;;;;;;;10436032;28;20041;-75
2023/04/08 14:42:00;;;;;;;16.17;7.77;;;;;;;;;;10431280;28;20064;-74
2023/04/08 14:47:03;;;;;;;14.07;6.53;;;;;;;;;;10446413;28;20455;-74
2023/04/08 14:52:05;;;;;;;12.48;6.32;;;;;;;;;;10414910;28;20442;-76
2023/04/08 14:57:09;;;;;;;12.82;6.13;;;;;;;;;;10410864;28;20069;-76
2023/04/08 15:02:12;;;;;;;15.52;6.25;;;;;;;;;;10411630;28;20072;-75
2023/04/08 15:07:16;;;;;;;13.70;6.68;;;;;;;;;;10406975;28;20048;-74
2023/04/08 15:12:21;;;;;;;15.85;7.10;;;;;;;;;;10391403;28;20038;-75
2023/04/08 15:17:24;;;;;;;;;;;;;;;;;;10409476;28;20503;-76
2023/04/08 15:22:27;;;;;;;14.57;7.18;;;;;;;;;;10404348;28;20019;-76
2023/04/08 15:27:31;;;;;;;18.02;8.07;;;;;;;;;;10413929;28;20057;-75
2023/04/08 15:32:34;;;;;;;19.08;8.63;;;;;;;;;;10416385;28;20029;-76
2023/04/08 15:37:37;;;;;;;27.73;11.10;;;;;;;;;;10408552;28;20419;-75
2023/04/08 15:42:50;;;;;;;15.30;7.82;;;;;;;;;;10409942;28;20042;-76
2023/04/08 15:47:54;;;;;;;19.55;8.48;;;;;;;;;;10410449;28;20038;-74
2023/04/08 15:52:57;;;;;;;19.97;9.00;;;;;;;;;;10413215;28;20071;-75
2023/04/08 15:58:01;;;;;;;19.75;8.52;;;;;;;;;;10407842;28;20060;-76
2023/04/08 16:03:07;;;;;;;19.77;8.77;;;;;;;;;;10409589;28;20037;-76
2023/04/08 16:08:10;;;;;;;21.60;9.68;;;;;;;;;;10403607;28;20045;-75
2023/04/08 16:13:14;;;;;;;20.73;8.77;;;;;;;;;;10407191;28;20095;-76
2023/04/08 16:18:16;;;;;;;;;;;;;;;;;;10410624;28;20037;-76
2023/04/08 16:23:19;;;;;;;18.05;8.77;;;;;;;;;;10407257;28;19924;-76
2023/04/08 16:28:26;;;;;;;18.57;9.13;;;;;;;;;;10409454;28;20083;-77
2023/04/08 16:33:30;;;;;;;19.58;9.00;;;;;;;;;;10418833;28;20554;-75
2023/04/08 16:38:35;;;;;;;19.13;8.60;;;;;;;;;;10404699;28;20045;-76
2023/04/08 16:43:40;;;;;;;17.90;8.18;;;;;;;;;;10390052;28;20065;-76
2023/04/08 16:48:43;;;;;;;22.48;8.88;;;;;;;;;;10411807;28;20051;-76
2023/04/08 16:53:46;;;;;;;22.00;8.77;;;;;;;;;;10408361;28;20076;-77
2023/04/08 16:58:51;;;;;;;18.67;8.23;;;;;;;;;;10408840;28;20049;-78
2023/04/08 17:03:55;;;;;;;20.00;8.55;;;;;;;;;;10408666;28;20098;-76
2023/04/08 17:08:59;;;;;;;16.10;7.57;;;;;;;;;;10407622;28;20043;-76
2023/04/08 17:14:02;;;;;;;19.25;7.32;;;;;;;;;;10389899;28;20510;-76
2023/04/08 17:19:06;;;;;;;18.73;7.88;;;;;;;;;;10409739;28;20123;-76
2023/04/08 17:24:09;;;;;;;16.70;7.87;;;;;;;;;;10410354;28;20404;-76
2023/04/08 17:29:14;;;;;;;18.17;8.38;;;;;;;;;;10405834;28;20045;-76
2023/04/08 17:34:16;;;;;;;18.55;7.35;;;;;;;;;;10407493;28;20089;-76
2023/04/08 17:39:19;;;;;;;16.35;7.60;;;;;;;;;;10393236;28;20136;-75
2023/04/08 17:44:28;;;;;;;18.83;8.35;;;;;;;;;;10405251;28;20483;-76
2023/04/08 17:49:31;;;;;;;17.88;7.63;;;;;;;;;;10412340;28;20052;-76
2023/04/08 17:54:34;;;;;;;17.30;7.87;;;;;;;;;;10400392;28;20048;-76
2023/04/08 17:59:38;;;;;;;27.73;13.05;;;;;;;;;;10390824;28;20041;-76
2023/04/08 18:04:43;;;;;;;21.92;7.78;;;;;;;;;;10406867;28;20037;-74
2023/04/08 18:09:47;;;;;;;20.50;8.32;;;;;;;;;;10406233;28;20619;-75
2023/04/08 18:14:51;;;;;;;17.45;7.25;;;;;;;;;;10423500;28;20037;-77
2023/04/08 18:19:57;;;;;;;18.65;7.63;;;;;;;;;;10390279;28;20132;-76
2023/04/08 18:25:01;;;;;;;18.42;8.07;;;;;;;;;;10414845;28;20041;-74
2023/04/08 18:30:06;;;;;;;19.08;8.20;;;;;;;;;;10405157;28;20483;-76
2023/04/08 18:35:09;;;;;;;17.35;7.50;;;;;;;;;;10392404;28;20037;-74
2023/04/08 18:40:12;;;;;;;20.02;8.50;;;;;;;;;;10410696;28;20050;-74
2023/04/08 18:45:17;;;;;;;21.43;8.87;;;;;;;;;;10412944;28;20045;-76
2023/04/08 18:50:19;;;;;;;;;;;;;;;;;;10402835;28;20482;-75
2023/04/08 18:55:23;;;;;;;20.38;8.45;;;;;;;;;;10412805;28;19959;-75
2023/04/08 19:00:27;;;;;;;20.97;8.10;;;;;;;;;;10410086;28;20045;-76
2023/04/08 19:05:40;;;;;;;21.65;8.85;;;;;;;;;;10405679;28;20037;-77
2023/04/08 19:10:44;;;;;;;22.30;8.77;;;;;;;;;;10403453;28;20043;-76
2023/04/08 19:15:47;;;;;;;23.52;9.35;;;;;;;;;;10412855;28;20302;-76
2023/04/08 19:20:50;;;;;;;21.25;8.75;;;;;;;;;;10410322;28;20136;-76
2023/04/08 19:25:53;;;;;;;25.65;9.88;;;;;;;;;;10412224;28;20038;-75
2023/04/08 19:30:58;;;;;;;24.83;8.97;;;;;;;;;;10413964;28;20072;-76
2023/04/08 19:36:01;;;;;;;19.73;8.38;;;;;;;;;;10404110;28;20407;-76
2023/04/08 19:41:04;;;;;;;20.58;8.85;;;;;;;;;;10409011;28;20049;-76
2023/04/08 19:46:08;;;;;;;21.48;8.98;;;;;;;;;;10410262;28;20546;-76
2023/04/08 19:51:14;;;;;;;21.25;9.57;;;;;;;;;;10411173;28;20086;-75
2023/04/08 19:56:18;;;;;;;23.08;9.98;;;;;;;;;;10410748;28;20037;-76
2023/04/08 20:01:34;;;;;;;22.15;9.55;;;;;;;;;;10404844;28;20041;-75
2023/04/08 20:06:37;;;;;;;21.20;9.70;;;;;;;;;;10391521;28;20045;-75
2023/04/08 20:11:41;;;;;;;21.27;8.47;;;;;;;;;;10400683;28;20049;-75
2023/04/08 20:16:49;;;;;;;19.77;8.68;;;;;;;;;;10391836;28;20125;-74
2023/04/08 20:21:53;;;;;;;20.92;8.68;;;;;;;;;;10405547;28;20041;-75
2023/04/08 20:26:55;;;;;;;19.08;9.60;;;;;;;;;;10382350;28;20056;-76
2023/04/08 20:32:00;;;;;;;20.20;9.40;;;;;;;;;;10404768;28;20068;-75
2023/04/08 20:37:03;;;;;;;20.27;8.95;;;;;;;;;;10409160;28;20160;-76
2023/04/08 20:42:08;;;;;;;23.87;10.53;;;;;;;;;;10405950;28;20499;-75
2023/04/08 20:47:13;;;;;;;21.23;10.77;;;;;;;;;;10407766;28;20201;-76
2023/04/08 20:52:15;;;;;;;22.80;10.57;;;;;;;;;;10412323;28;20412;-76
2023/04/08 20:57:20;;;;;;;21.50;10.75;;;;;;;;;;10407217;28;20037;-76
2023/04/08 21:02:25;;;;;;;25.52;11.00;;;;;;;;;;10414179;28;20550;-76
2023/04/08 21:07:30;;;;;;;22.38;10.52;;;;;;;;;;10407132;28;20501;-75
2023/04/08 21:12:33;;;;;;;22.73;10.07;;;;;;;;;;10398326;28;20041;-74
2023/04/08 21:17:38;;;;;;;25.43;9.70;;;;;;;;;;10389889;28;20049;-74
2023/04/08 21:22:41;;;;;;;22.08;9.95;;;;;;;;;;10414644;28;20392;-75
2023/04/08 21:27:44;;;;;;;23.63;9.57;;;;;;;;;;10400157;28;20124;-75
2023/04/08 21:32:48;;;;;;;22.70;8.32;;;;;;;;;;10407285;28;20060;-75
2023/04/08 21:37:51;;;;;;;;;;;;;;;;;;10385574;28;20388;-75
2023/04/08 21:42:54;;;;;;;13.88;5.45;;;;;;;;;;10404771;28;19921;-75
2023/04/08 21:47:58;;;;;;;11.10;4.93;;;;;;;;;;10414990;28;20510;-75
2023/04/08 21:53:02;;;;;;;12.60;4.22;;;;;;;;;;10407741;28;20096;-75
2023/04/08 21:58:16;;;;;;;10.15;3.92;;;;;;;;;;10415962;28;20041;-74
2023/04/08 22:03:20;;;;;;;9.53;4.20;;;;;;;;;;10419078;28;20101;-74
2023/04/08 22:08:24;;;;;;;12.05;4.35;;;;;;;;;;10411511;28;20560;-74
2023/04/08 22:13:27;;;;;;;11.45;4.53;;;;;;;;;;10411640;28;20045;-75
2023/04/08 22:18:33;;;;;;;10.23;4.13;;;;;;;;;;10404494;28;20514;-76
2023/04/08 22:23:35;;;;;;;;;;;;;;;;;;10413980;28;20087;-76
2023/04/08 22:28:38;;;;;;;9.55;4.20;;;;;;;;;;10408886;28;20020;-75
2023/04/08 22:33:45;;;;;;;10.02;4.25;;;;;;;;;;10411055;28;20120;-75
2023/04/08 22:38:47;;;;;;;10.85;4.38;;;;;;;;;;10411224;28;20049;-76
2023/04/08 22:43:50;;;;;;;13.00;5.80;;;;;;;;;;10410569;28;20101;-75
2023/04/08 22:48:54;;;;;;;13.77;6.43;;;;;;;;;;10408559;28;20042;-75
2023/04/08 22:53:57;;;;;;;12.13;5.50;;;;;;;;;;10412508;28;20069;-75
2023/04/08 22:59:00;;;;;;;14.60;5.63;;;;;;;;;;10407597;28;20538;-75
2023/04/08 23:04:04;;;;;;;14.90;6.03;;;;;;;;;;10411700;28;20096;-75
2023/04/08 23:09:18;;;;;;;17.30;7.15;;;;;;;;;;10409603;28;20412;-75
2023/04/08 23:14:20;;;;;;;15.93;6.30;;;;;;;;;;10411853;28;20052;-75
2023/04/08 23:19:24;;;;;;;18.52;7.72;;;;;;;;;;10412521;28;20048;-75
2023/04/08 23:24:27;;;;;;;17.42;6.45;;;;;;;;;;10412164;28;20417;-75
2023/04/08 23:29:30;;;;;;;17.70;7.00;;;;;;;;;;10404970;28;20111;-75
2023/04/08 23:34:36;;;;;;;18.73;7.57;;;;;;;;;;10403934;28;20566;-75
2023/04/08 23:39:39;;;;;;;19.48;8.57;;;;;;;;;;10408689;28;20037;-75
2023/04/08 23:44:42;;;;;;;16.02;6.68;;;;;;;;;;10418592;28;20447;-76
2023/04/08 23:49:45;;;;;;;12.00;4.80;;;;;;;;;;10415632;28;20045;-77
2023/04/08 23:54:48;;;;;;;;;;;;;;;;;;10414429;28;20033;-76
2023/04/08 23:59:53;;;;;;;11.73;4.85;;;;;;;;;;10400846;28;20164;-75
